sensor_id;sensor_type;location;lat;lon;timestamp;P1;durP1;ratioP1;P2;durP2;ratioP2
36009;SDS011;22076;52.182;5.404;2024-03-25T00:02:17;18.52;;;3.85;;
36009;SDS011;22076;52.182;5.404;2024-03-25T00:04:43;28.38;;;4.05;;
36009;SDS011;22076;52.182;5.404;2024-03-25T00:07:10;10.82;;;1.83;;
36009;SDS011;22076;52.182;5.404;2024-03-25T00:09:37;14.20;;;2.83;;
36009;SDS011;22076;52.182;5.404;2024-03-25T00:12:03;21.40;;;3.35;;
36009;SDS011;22076;52.182;5.404;2024-03-25T00:14:29;6.90;;;1.55;;
36009;SDS011;22076;52.182;5.404;2024-03-25T00:16:56;6.55;;;2.08;;
36009;SDS011;22076;52.182;5.404;2024-03-25T00:19:22;17.58;;;2.47;;
36009;SDS011;22076;52.182;5.404;2024-03-25T00:21:48;20.20;;;3.58;;
36009;SDS011;22076;52.182;5.404;2024-03-25T00:24:14;12.48;;;2.58;;
36009;SDS011;22076;52.182;5.404;2024-03-25T00:26:42;17.00;;;2.78;;
36009;SDS011;22076;52.182;5.404;2024-03-25T00:29:08;8.70;;;2.58;;
36009;SDS011;22076;52.182;5.404;2024-03-25T00:31:34;18.35;;;4.28;;
36009;SDS011;22076;52.182;5.404;2024-03-25T00:34:00;22.33;;;2.75;;
36009;SDS011;22076;52.182;5.404;2024-03-25T00:36:26;11.77;;;2.20;;
36009;SDS011;22076;52.182;5.404;2024-03-25T00:38:52;13.60;;;2.80;;
36009;SDS011;22076;52.182;5.404;2024-03-25T00:41:20;16.50;;;2.88;;
36009;SDS011;22076;52.182;5.404;2024-03-25T00:43:48;18.77;;;2.67;;
36009;SDS011;22076;52.182;5.404;2024-03-25T00:46:14;10.15;;;2.45;;
36009;SDS011;22076;52.182;5.404;2024-03-25T00:48:40;19.70;;;3.08;;
36009;SDS011;22076;52.182;5.404;2024-03-25T00:51:08;33.95;;;4.25;;
36009;SDS011;22076;52.182;5.404;2024-03-25T00:53:33;14.75;;;2.88;;
36009;SDS011;22076;52.182;5.404;2024-03-25T00:56:00;8.00;;;1.98;;
36009;SDS011;22076;52.182;5.404;2024-03-25T00:58:25;11.93;;;2.33;;
36009;SDS011;22076;52.182;5.404;2024-03-25T01:00:53;12.48;;;2.25;;
36009;SDS011;22076;52.182;5.404;2024-03-25T01:03:18;16.27;;;3.00;;
36009;SDS011;22076;52.182;5.404;2024-03-25T01:05:45;21.48;;;2.75;;
36009;SDS011;22076;52.182;5.404;2024-03-25T01:08:10;17.05;;;3.47;;
36009;SDS011;22076;52.182;5.404;2024-03-25T01:10:38;15.68;;;2.95;;
36009;SDS011;22076;52.182;5.404;2024-03-25T01:13:04;12.38;;;2.85;;
36009;SDS011;22076;52.182;5.404;2024-03-25T01:15:30;21.95;;;3.95;;
36009;SDS011;22076;52.182;5.404;2024-03-25T01:17:57;19.38;;;3.85;;
36009;SDS011;22076;52.182;5.404;2024-03-25T01:20:24;15.20;;;2.53;;
36009;SDS011;22076;52.182;5.404;2024-03-25T01:22:49;13.07;;;2.70;;
36009;SDS011;22076;52.182;5.404;2024-03-25T01:25:16;16.30;;;4.05;;
36009;SDS011;22076;52.182;5.404;2024-03-25T01:27:41;12.88;;;2.20;;
36009;SDS011;22076;52.182;5.404;2024-03-25T01:30:08;10.27;;;2.58;;
36009;SDS011;22076;52.182;5.404;2024-03-25T01:32:35;17.38;;;2.83;;
36009;SDS011;22076;52.182;5.404;2024-03-25T01:35:03;18.75;;;3.28;;
36009;SDS011;22076;52.182;5.404;2024-03-25T01:37:29;21.17;;;3.03;;
36009;SDS011;22076;52.182;5.404;2024-03-25T01:39:56;17.63;;;2.55;;
36009;SDS011;22076;52.182;5.404;2024-03-25T01:42:21;19.63;;;2.70;;
36009;SDS011;22076;52.182;5.404;2024-03-25T01:44:48;18.75;;;3.83;;
36009;SDS011;22076;52.182;5.404;2024-03-25T01:47:13;16.73;;;3.40;;
36009;SDS011;22076;52.182;5.404;2024-03-25T01:49:41;19.10;;;3.40;;
36009;SDS011;22076;52.182;5.404;2024-03-25T01:52:08;14.88;;;2.67;;
36009;SDS011;22076;52.182;5.404;2024-03-25T01:54:35;29.60;;;3.60;;
36009;SDS011;22076;52.182;5.404;2024-03-25T01:57:00;13.65;;;2.60;;
36009;SDS011;22076;52.182;5.404;2024-03-25T01:59:27;13.48;;;2.95;;
36009;SDS011;22076;52.182;5.404;2024-03-25T02:01:53;13.65;;;2.58;;
36009;SDS011;22076;52.182;5.404;2024-03-25T02:04:21;16.05;;;2.85;;
36009;SDS011;22076;52.182;5.404;2024-03-25T02:06:47;13.95;;;2.03;;
36009;SDS011;22076;52.182;5.404;2024-03-25T02:09:17;18.98;;;2.75;;
36009;SDS011;22076;52.182;5.404;2024-03-25T02:11:43;19.17;;;3.33;;
36009;SDS011;22076;52.182;5.404;2024-03-25T02:14:10;12.02;;;2.83;;
36009;SDS011;22076;52.182;5.404;2024-03-25T02:16:36;11.73;;;1.98;;
36009;SDS011;22076;52.182;5.404;2024-03-25T02:19:02;22.80;;;3.42;;
36009;SDS011;22076;52.182;5.404;2024-03-25T02:21:28;8.43;;;1.77;;
36009;SDS011;22076;52.182;5.404;2024-03-25T02:23:55;13.73;;;2.47;;
36009;SDS011;22076;52.182;5.404;2024-03-25T02:26:25;17.23;;;2.63;;
36009;SDS011;22076;52.182;5.404;2024-03-25T02:28:52;17.65;;;3.25;;
36009;SDS011;22076;52.182;5.404;2024-03-25T02:31:18;18.73;;;3.03;;
36009;SDS011;22076;52.182;5.404;2024-03-25T02:33:44;10.15;;;2.58;;
36009;SDS011;22076;52.182;5.404;2024-03-25T02:36:10;16.92;;;3.72;;
36009;SDS011;22076;52.182;5.404;2024-03-25T02:38:37;12.45;;;2.17;;
36009;SDS011;22076;52.182;5.404;2024-03-25T02:41:03;25.83;;;2.95;;
36009;SDS011;22076;52.182;5.404;2024-03-25T02:43:31;17.25;;;2.72;;
36009;SDS011;22076;52.182;5.404;2024-03-25T02:45:57;12.20;;;2.17;;
36009;SDS011;22076;52.182;5.404;2024-03-25T02:48:23;19.02;;;2.72;;
36009;SDS011;22076;52.182;5.404;2024-03-25T02:50:49;13.95;;;3.08;;
36009;SDS011;22076;52.182;5.404;2024-03-25T02:53:16;20.77;;;2.88;;
36009;SDS011;22076;52.182;5.404;2024-03-25T02:55:41;9.93;;;1.77;;
36009;SDS011;22076;52.182;5.404;2024-03-25T02:58:08;13.82;;;2.63;;
36009;SDS011;22076;52.182;5.404;2024-03-25T03:00:35;19.88;;;2.88;;
36009;SDS011;22076;52.182;5.404;2024-03-25T03:03:02;19.45;;;3.55;;
36009;SDS011;22076;52.182;5.404;2024-03-25T03:05:28;13.38;;;2.65;;
36009;SDS011;22076;52.182;5.404;2024-03-25T03:07:55;14.77;;;2.50;;
36009;SDS011;22076;52.182;5.404;2024-03-25T03:10:20;20.20;;;3.28;;
36009;SDS011;22076;52.182;5.404;2024-03-25T03:12:47;15.32;;;2.38;;
36009;SDS011;22076;52.182;5.404;2024-03-25T03:15:12;18.60;;;3.28;;
36009;SDS011;22076;52.182;5.404;2024-03-25T03:17:41;16.55;;;3.05;;
36009;SDS011;22076;52.182;5.404;2024-03-25T03:20:07;12.02;;;2.72;;
36009;SDS011;22076;52.182;5.404;2024-03-25T03:22:35;4.78;;;1.90;;
36009;SDS011;22076;52.182;5.404;2024-03-25T03:25:00;19.27;;;4.03;;
36009;SDS011;22076;52.182;5.404;2024-03-25T03:27:27;18.75;;;3.55;;
36009;SDS011;22076;52.182;5.404;2024-03-25T03:29:53;11.30;;;3.42;;
36009;SDS011;22076;52.182;5.404;2024-03-25T03:32:19;21.65;;;3.85;;
36009;SDS011;22076;52.182;5.404;2024-03-25T03:34:47;17.38;;;3.25;;
36009;SDS011;22076;52.182;5.404;2024-03-25T03:37:13;20.63;;;3.33;;
36009;SDS011;22076;52.182;5.404;2024-03-25T03:39:39;15.63;;;2.55;;
36009;SDS011;22076;52.182;5.404;2024-03-25T03:42:05;15.65;;;3.05;;
36009;SDS011;22076;52.182;5.404;2024-03-25T03:44:31;8.75;;;2.65;;
36009;SDS011;22076;52.182;5.404;2024-03-25T03:46:57;12.63;;;3.10;;
36009;SDS011;22076;52.182;5.404;2024-03-25T03:49:23;15.50;;;2.67;;
36009;SDS011;22076;52.182;5.404;2024-03-25T03:51:51;11.90;;;2.88;;
36009;SDS011;22076;52.182;5.404;2024-03-25T03:54:16;15.50;;;3.25;;
36009;SDS011;22076;52.182;5.404;2024-03-25T03:56:43;15.50;;;2.92;;
36009;SDS011;22076;52.182;5.404;2024-03-25T03:59:08;8.80;;;1.92;;
36009;SDS011;22076;52.182;5.404;2024-03-25T04:01:35;11.95;;;2.50;;
36009;SDS011;22076;52.182;5.404;2024-03-25T04:04:00;9.63;;;2.90;;
36009;SDS011;22076;52.182;5.404;2024-03-25T04:06:27;19.38;;;3.33;;
36009;SDS011;22076;52.182;5.404;2024-03-25T04:08:54;10.98;;;2.58;;
36009;SDS011;22076;52.182;5.404;2024-03-25T04:11:20;9.57;;;2.28;;
36009;SDS011;22076;52.182;5.404;2024-03-25T04:13:46;8.23;;;2.60;;
36009;SDS011;22076;52.182;5.404;2024-03-25T04:16:13;15.88;;;2.90;;
36009;SDS011;22076;52.182;5.404;2024-03-25T04:18:38;14.63;;;3.20;;
36009;SDS011;22076;52.182;5.404;2024-03-25T04:21:10;17.83;;;3.75;;
36009;SDS011;22076;52.182;5.404;2024-03-25T04:23:37;14.75;;;3.63;;
36009;SDS011;22076;52.182;5.404;2024-03-25T04:26:06;25.27;;;3.25;;
36009;SDS011;22076;52.182;5.404;2024-03-25T04:28:32;17.15;;;3.13;;
36009;SDS011;22076;52.182;5.404;2024-03-25T04:30:59;10.07;;;3.03;;
36009;SDS011;22076;52.182;5.404;2024-03-25T04:33:24;19.08;;;3.78;;
36009;SDS011;22076;52.182;5.404;2024-03-25T04:35:51;20.65;;;3.20;;
36009;SDS011;22076;52.182;5.404;2024-03-25T04:38:16;9.40;;;3.33;;
36009;SDS011;22076;52.182;5.404;2024-03-25T04:40:42;14.85;;;3.55;;
36009;SDS011;22076;52.182;5.404;2024-03-25T04:43:09;10.60;;;2.25;;
36009;SDS011;22076;52.182;5.404;2024-03-25T04:45:36;17.33;;;3.88;;
36009;SDS011;22076;52.182;5.404;2024-03-25T04:48:01;12.32;;;3.53;;
36009;SDS011;22076;52.182;5.404;2024-03-25T04:50:27;15.77;;;3.15;;
36009;SDS011;22076;52.182;5.404;2024-03-25T04:52:53;14.23;;;3.30;;
36009;SDS011;22076;52.182;5.404;2024-03-25T04:55:19;16.98;;;2.72;;
36009;SDS011;22076;52.182;5.404;2024-03-25T04:57:44;20.60;;;3.75;;
36009;SDS011;22076;52.182;5.404;2024-03-25T05:00:12;14.75;;;3.60;;
36009;SDS011;22076;52.182;5.404;2024-03-25T05:02:38;19.38;;;3.65;;
36009;SDS011;22076;52.182;5.404;2024-03-25T05:05:04;15.20;;;3.78;;
36009;SDS011;22076;52.182;5.404;2024-03-25T05:07:30;15.25;;;3.17;;
36009;SDS011;22076;52.182;5.404;2024-03-25T05:09:56;14.98;;;4.28;;
36009;SDS011;22076;52.182;5.404;2024-03-25T05:12:21;12.55;;;3.25;;
36009;SDS011;22076;52.182;5.404;2024-03-25T05:14:47;17.52;;;4.53;;
36009;SDS011;22076;52.182;5.404;2024-03-25T05:17:14;18.95;;;3.42;;
36009;SDS011;22076;52.182;5.404;2024-03-25T05:19:40;13.63;;;4.03;;
36009;SDS011;22076;52.182;5.404;2024-03-25T05:22:05;20.65;;;3.45;;
36009;SDS011;22076;52.182;5.404;2024-03-25T05:24:31;19.20;;;4.22;;
36009;SDS011;22076;52.182;5.404;2024-03-25T05:26:56;15.70;;;4.10;;
36009;SDS011;22076;52.182;5.404;2024-03-25T05:29:22;20.60;;;3.65;;
36009;SDS011;22076;52.182;5.404;2024-03-25T05:31:55;9.93;;;3.72;;
36009;SDS011;22076;52.182;5.404;2024-03-25T05:34:23;11.85;;;3.03;;
36009;SDS011;22076;52.182;5.404;2024-03-25T05:36:49;21.42;;;4.75;;
36009;SDS011;22076;52.182;5.404;2024-03-25T05:39:15;18.05;;;3.67;;
36009;SDS011;22076;52.182;5.404;2024-03-25T05:41:41;12.82;;;2.95;;
36009;SDS011;22076;52.182;5.404;2024-03-25T05:44:06;11.65;;;3.60;;
36009;SDS011;22076;52.182;5.404;2024-03-25T05:46:33;16.58;;;4.72;;
36009;SDS011;22076;52.182;5.404;2024-03-25T05:49:00;14.27;;;3.45;;
36009;SDS011;22076;52.182;5.404;2024-03-25T05:51:28;15.52;;;3.38;;
36009;SDS011;22076;52.182;5.404;2024-03-25T05:53:54;18.40;;;4.03;;
36009;SDS011;22076;52.182;5.404;2024-03-25T05:56:19;15.70;;;3.83;;
36009;SDS011;22076;52.182;5.404;2024-03-25T05:58:45;19.13;;;4.22;;
36009;SDS011;22076;52.182;5.404;2024-03-25T06:01:11;20.00;;;5.18;;
36009;SDS011;22076;52.182;5.404;2024-03-25T06:03:37;24.45;;;4.25;;
36009;SDS011;22076;52.182;5.404;2024-03-25T06:06:03;16.05;;;4.30;;
36009;SDS011;22076;52.182;5.404;2024-03-25T06:08:30;16.77;;;4.55;;
36009;SDS011;22076;52.182;5.404;2024-03-25T06:10:59;19.08;;;5.00;;
36009;SDS011;22076;52.182;5.404;2024-03-25T06:13:26;15.85;;;4.72;;
36009;SDS011;22076;52.182;5.404;2024-03-25T06:15:51;16.58;;;4.45;;
36009;SDS011;22076;52.182;5.404;2024-03-25T06:18:17;19.40;;;4.32;;
36009;SDS011;22076;52.182;5.404;2024-03-25T06:20:42;12.13;;;4.35;;
36009;SDS011;22076;52.182;5.404;2024-03-25T06:23:08;11.13;;;3.80;;
36009;SDS011;22076;52.182;5.404;2024-03-25T06:25:35;35.08;;;7.80;;
36009;SDS011;22076;52.182;5.404;2024-03-25T06:28:01;30.23;;;6.75;;
36009;SDS011;22076;52.182;5.404;2024-03-25T06:30:26;24.65;;;5.57;;
36009;SDS011;22076;52.182;5.404;2024-03-25T06:33:10;14.95;;;4.68;;
36009;SDS011;22076;52.182;5.404;2024-03-25T06:35:55;27.40;;;5.75;;
36009;SDS011;22076;52.182;5.404;2024-03-25T06:38:20;12.60;;;2.92;;
36009;SDS011;22076;52.182;5.404;2024-03-25T06:40:47;26.60;;;5.35;;
36009;SDS011;22076;52.182;5.404;2024-03-25T06:43:13;10.85;;;4.60;;
36009;SDS011;22076;52.182;5.404;2024-03-25T06:45:40;25.38;;;6.03;;
36009;SDS011;22076;52.182;5.404;2024-03-25T06:48:07;17.13;;;6.15;;
36009;SDS011;22076;52.182;5.404;2024-03-25T06:50:32;22.67;;;5.15;;
36009;SDS011;22076;52.182;5.404;2024-03-25T06:52:59;16.95;;;4.57;;
36009;SDS011;22076;52.182;5.404;2024-03-25T06:55:25;13.30;;;3.45;;
36009;SDS011;22076;52.182;5.404;2024-03-25T06:57:52;12.13;;;3.20;;
36009;SDS011;22076;52.182;5.404;2024-03-25T07:00:19;11.95;;;3.58;;
36009;SDS011;22076;52.182;5.404;2024-03-25T07:02:44;16.52;;;4.70;;
36009;SDS011;22076;52.182;5.404;2024-03-25T07:05:10;24.42;;;5.43;;
36009;SDS011;22076;52.182;5.404;2024-03-25T07:07:37;20.15;;;4.47;;
36009;SDS011;22076;52.182;5.404;2024-03-25T07:10:02;29.00;;;7.53;;
36009;SDS011;22076;52.182;5.404;2024-03-25T07:12:30;21.45;;;5.28;;
36009;SDS011;22076;52.182;5.404;2024-03-25T07:14:58;23.77;;;5.10;;
36009;SDS011;22076;52.182;5.404;2024-03-25T07:17:25;12.23;;;3.40;;
36009;SDS011;22076;52.182;5.404;2024-03-25T07:19:52;16.95;;;4.72;;
36009;SDS011;22076;52.182;5.404;2024-03-25T07:22:17;25.85;;;5.70;;
36009;SDS011;22076;52.182;5.404;2024-03-25T07:24:44;17.73;;;4.93;;
36009;SDS011;22076;52.182;5.404;2024-03-25T07:27:10;13.10;;;5.47;;
36009;SDS011;22076;52.182;5.404;2024-03-25T07:29:37;20.00;;;4.93;;
36009;SDS011;22076;52.182;5.404;2024-03-25T07:32:05;16.08;;;4.15;;
36009;SDS011;22076;52.182;5.404;2024-03-25T07:34:31;21.42;;;5.40;;
36009;SDS011;22076;52.182;5.404;2024-03-25T07:36:56;11.63;;;5.93;;
36009;SDS011;22076;52.182;5.404;2024-03-25T07:39:22;13.00;;;3.80;;
36009;SDS011;22076;52.182;5.404;2024-03-25T07:41:48;12.35;;;3.70;;
36009;SDS011;22076;52.182;5.404;2024-03-25T07:44:13;11.05;;;3.22;;
36009;SDS011;22076;52.182;5.404;2024-03-25T07:46:39;15.75;;;4.57;;
36009;SDS011;22076;52.182;5.404;2024-03-25T07:49:06;21.20;;;4.55;;
36009;SDS011;22076;52.182;5.404;2024-03-25T07:51:32;19.35;;;4.82;;
36009;SDS011;22076;52.182;5.404;2024-03-25T07:53:57;24.00;;;5.13;;
36009;SDS011;22076;52.182;5.404;2024-03-25T07:56:23;13.52;;;3.15;;
36009;SDS011;22076;52.182;5.404;2024-03-25T07:58:49;13.55;;;3.60;;
36009;SDS011;22076;52.182;5.404;2024-03-25T08:01:14;17.85;;;4.13;;
36009;SDS011;22076;52.182;5.404;2024-03-25T08:03:40;12.52;;;4.25;;
36009;SDS011;22076;52.182;5.404;2024-03-25T08:06:07;17.77;;;4.90;;
36009;SDS011;22076;52.182;5.404;2024-03-25T08:08:34;15.57;;;4.55;;
36009;SDS011;22076;52.182;5.404;2024-03-25T08:10:59;14.30;;;3.85;;
36009;SDS011;22076;52.182;5.404;2024-03-25T08:13:36;26.73;;;3.83;;
36009;SDS011;22076;52.182;5.404;2024-03-25T08:16:01;13.40;;;2.85;;
36009;SDS011;22076;52.182;5.404;2024-03-25T08:18:27;15.88;;;3.35;;
36009;SDS011;22076;52.182;5.404;2024-03-25T08:20:53;18.27;;;3.50;;
36009;SDS011;22076;52.182;5.404;2024-03-25T08:23:31;14.82;;;2.95;;
36009;SDS011;22076;52.182;5.404;2024-03-25T08:25:57;22.88;;;3.70;;
36009;SDS011;22076;52.182;5.404;2024-03-25T08:28:22;18.52;;;3.83;;
36009;SDS011;22076;52.182;5.404;2024-03-25T08:30:49;9.48;;;3.00;;
36009;SDS011;22076;52.182;5.404;2024-03-25T08:33:15;7.65;;;2.00;;
36009;SDS011;22076;52.182;5.404;2024-03-25T08:35:42;8.05;;;2.80;;
36009;SDS011;22076;52.182;5.404;2024-03-25T08:38:08;11.68;;;2.88;;
36009;SDS011;22076;52.182;5.404;2024-03-25T08:40:35;12.30;;;2.85;;
36009;SDS011;22076;52.182;5.404;2024-03-25T08:43:00;9.80;;;2.85;;
36009;SDS011;22076;52.182;5.404;2024-03-25T08:45:26;15.40;;;3.00;;
36009;SDS011;22076;52.182;5.404;2024-03-25T08:47:52;15.70;;;2.88;;
36009;SDS011;22076;52.182;5.404;2024-03-25T08:50:17;16.90;;;2.80;;
36009;SDS011;22076;52.182;5.404;2024-03-25T08:52:43;7.32;;;2.42;;
36009;SDS011;22076;52.182;5.404;2024-03-25T08:55:08;12.20;;;2.22;;
36009;SDS011;22076;52.182;5.404;2024-03-25T08:57:35;15.88;;;3.05;;
36009;SDS011;22076;52.182;5.404;2024-03-25T09:00:01;8.30;;;2.97;;
36009;SDS011;22076;52.182;5.404;2024-03-25T09:02:28;13.43;;;3.53;;
36009;SDS011;22076;52.182;5.404;2024-03-25T09:04:54;22.35;;;2.90;;
36009;SDS011;22076;52.182;5.404;2024-03-25T09:07:19;21.60;;;3.45;;
36009;SDS011;22076;52.182;5.404;2024-03-25T09:09:45;10.73;;;3.03;;
36009;SDS011;22076;52.182;5.404;2024-03-25T09:12:29;14.23;;;2.30;;
36009;SDS011;22076;52.182;5.404;2024-03-25T09:14:56;7.22;;;2.30;;
36009;SDS011;22076;52.182;5.404;2024-03-25T09:17:22;10.60;;;2.80;;
36009;SDS011;22076;52.182;5.404;2024-03-25T09:19:49;8.02;;;2.70;;
36009;SDS011;22076;52.182;5.404;2024-03-25T09:22:15;9.00;;;2.47;;
36009;SDS011;22076;52.182;5.404;2024-03-25T09:24:41;12.02;;;2.38;;
36009;SDS011;22076;52.182;5.404;2024-03-25T09:27:08;11.43;;;2.47;;
36009;SDS011;22076;52.182;5.404;2024-03-25T09:29:33;16.55;;;3.35;;
36009;SDS011;22076;52.182;5.404;2024-03-25T09:32:00;8.20;;;2.25;;
36009;SDS011;22076;52.182;5.404;2024-03-25T09:34:26;10.05;;;2.55;;
36009;SDS011;22076;52.182;5.404;2024-03-25T09:36:51;14.35;;;2.85;;
36009;SDS011;22076;52.182;5.404;2024-03-25T09:39:17;10.13;;;2.42;;
36009;SDS011;22076;52.182;5.404;2024-03-25T09:41:43;16.58;;;2.95;;
36009;SDS011;22076;52.182;5.404;2024-03-25T09:44:09;12.50;;;2.03;;
36009;SDS011;22076;52.182;5.404;2024-03-25T09:46:35;15.32;;;2.42;;
36009;SDS011;22076;52.182;5.404;2024-03-25T09:49:03;11.48;;;2.55;;
36009;SDS011;22076;52.182;5.404;2024-03-25T09:51:29;8.52;;;2.20;;
36009;SDS011;22076;52.182;5.404;2024-03-25T09:53:54;25.83;;;4.65;;
36009;SDS011;22076;52.182;5.404;2024-03-25T09:56:21;17.83;;;4.35;;
36009;SDS011;22076;52.182;5.404;2024-03-25T09:58:47;14.57;;;2.58;;
36009;SDS011;22076;52.182;5.404;2024-03-25T10:01:13;3.47;;;2.20;;
36009;SDS011;22076;52.182;5.404;2024-03-25T10:03:39;13.90;;;2.72;;
36009;SDS011;22076;52.182;5.404;2024-03-25T10:06:06;9.85;;;3.55;;
36009;SDS011;22076;52.182;5.404;2024-03-25T10:08:32;8.52;;;2.90;;
36009;SDS011;22076;52.182;5.404;2024-03-25T10:11:00;12.18;;;4.00;;
36009;SDS011;22076;52.182;5.404;2024-03-25T10:13:26;12.52;;;2.55;;
36009;SDS011;22076;52.182;5.404;2024-03-25T10:15:56;16.52;;;4.38;;
36009;SDS011;22076;52.182;5.404;2024-03-25T10:18:21;14.68;;;3.63;;
36009;SDS011;22076;52.182;5.404;2024-03-25T10:20:48;11.65;;;3.88;;
36009;SDS011;22076;52.182;5.404;2024-03-25T10:23:15;8.88;;;2.83;;
36009;SDS011;22076;52.182;5.404;2024-03-25T10:25:40;14.95;;;3.50;;
36009;SDS011;22076;52.182;5.404;2024-03-25T10:28:06;11.07;;;3.70;;
36009;SDS011;22076;52.182;5.404;2024-03-25T10:30:33;13.77;;;3.47;;
36009;SDS011;22076;52.182;5.404;2024-03-25T10:32:59;22.08;;;4.88;;
36009;SDS011;22076;52.182;5.404;2024-03-25T10:35:27;7.68;;;2.45;;
36009;SDS011;22076;52.182;5.404;2024-03-25T10:37:57;13.43;;;3.50;;
36009;SDS011;22076;52.182;5.404;2024-03-25T10:40:26;14.48;;;3.10;;
36009;SDS011;22076;52.182;5.404;2024-03-25T10:43:00;10.73;;;3.10;;
36009;SDS011;22076;52.182;5.404;2024-03-25T10:45:30;22.23;;;4.40;;
36009;SDS011;22076;52.182;5.404;2024-03-25T10:47:57;16.85;;;4.15;;
36009;SDS011;22076;52.182;5.404;2024-03-25T10:50:25;25.30;;;4.38;;
36009;SDS011;22076;52.182;5.404;2024-03-25T10:52:53;12.63;;;3.30;;
36009;SDS011;22076;52.182;5.404;2024-03-25T10:55:20;11.50;;;2.80;;
36009;SDS011;22076;52.182;5.404;2024-03-25T10:57:48;17.92;;;4.82;;
36009;SDS011;22076;52.182;5.404;2024-03-25T11:00:15;13.85;;;3.63;;
36009;SDS011;22076;52.182;5.404;2024-03-25T11:02:41;13.23;;;3.53;;
36009;SDS011;22076;52.182;5.404;2024-03-25T11:05:08;16.75;;;4.00;;
36009;SDS011;22076;52.182;5.404;2024-03-25T11:07:34;19.30;;;3.78;;
36009;SDS011;22076;52.182;5.404;2024-03-25T11:10:03;16.58;;;3.28;;
36009;SDS011;22076;52.182;5.404;2024-03-25T11:12:38;15.52;;;3.03;;
36009;SDS011;22076;52.182;5.404;2024-03-25T11:15:08;11.82;;;3.33;;
36009;SDS011;22076;52.182;5.404;2024-03-25T11:17:34;10.63;;;3.13;;
36009;SDS011;22076;52.182;5.404;2024-03-25T11:20:07;6.00;;;2.60;;
36009;SDS011;22076;52.182;5.404;2024-03-25T11:22:33;9.27;;;3.38;;
36009;SDS011;22076;52.182;5.404;2024-03-25T11:25:04;13.55;;;4.82;;
36009;SDS011;22076;52.182;5.404;2024-03-25T11:27:31;12.52;;;3.95;;
36009;SDS011;22076;52.182;5.404;2024-03-25T11:29:57;13.13;;;4.07;;
36009;SDS011;22076;52.182;5.404;2024-03-25T11:32:24;11.48;;;4.28;;
36009;SDS011;22076;52.182;5.404;2024-03-25T11:34:51;14.02;;;3.90;;
36009;SDS011;22076;52.182;5.404;2024-03-25T11:37:17;10.77;;;4.55;;
36009;SDS011;22076;52.182;5.404;2024-03-25T11:39:43;11.50;;;4.38;;
36009;SDS011;22076;52.182;5.404;2024-03-25T11:42:09;11.57;;;4.20;;
36009;SDS011;22076;52.182;5.404;2024-03-25T11:44:36;6.45;;;3.13;;
36009;SDS011;22076;52.182;5.404;2024-03-25T11:47:03;5.40;;;2.90;;
36009;SDS011;22076;52.182;5.404;2024-03-25T11:49:30;13.68;;;4.60;;
36009;SDS011;22076;52.182;5.404;2024-03-25T11:51:58;12.27;;;4.53;;
36009;SDS011;22076;52.182;5.404;2024-03-25T11:54:25;16.67;;;4.53;;
36009;SDS011;22076;52.182;5.404;2024-03-25T11:56:52;12.93;;;4.03;;
36009;SDS011;22076;52.182;5.404;2024-03-25T11:59:19;8.15;;;3.13;;
36009;SDS011;22076;52.182;5.404;2024-03-25T12:01:44;8.25;;;2.80;;
36009;SDS011;22076;52.182;5.404;2024-03-25T12:04:10;10.02;;;4.40;;
36009;SDS011;22076;52.182;5.404;2024-03-25T12:06:37;8.35;;;3.97;;
36009;SDS011;22076;52.182;5.404;2024-03-25T12:09:03;10.88;;;4.10;;
36009;SDS011;22076;52.182;5.404;2024-03-25T12:11:47;10.73;;;4.90;;
36009;SDS011;22076;52.182;5.404;2024-03-25T12:14:13;11.13;;;3.83;;
36009;SDS011;22076;52.182;5.404;2024-03-25T12:16:39;11.63;;;4.60;;
36009;SDS011;22076;52.182;5.404;2024-03-25T12:19:05;11.45;;;5.47;;
36009;SDS011;22076;52.182;5.404;2024-03-25T12:21:31;9.15;;;4.25;;
36009;SDS011;22076;52.182;5.404;2024-03-25T12:23:59;10.30;;;4.93;;
36009;SDS011;22076;52.182;5.404;2024-03-25T12:26:24;11.50;;;5.35;;
36009;SDS011;22076;52.182;5.404;2024-03-25T12:28:50;14.57;;;5.55;;
36009;SDS011;22076;52.182;5.404;2024-03-25T12:31:16;16.48;;;4.68;;
36009;SDS011;22076;52.182;5.404;2024-03-25T12:33:42;11.63;;;4.00;;
36009;SDS011;22076;52.182;5.404;2024-03-25T12:36:09;8.02;;;3.85;;
36009;SDS011;22076;52.182;5.404;2024-03-25T12:38:37;13.00;;;4.90;;
36009;SDS011;22076;52.182;5.404;2024-03-25T12:41:04;8.85;;;4.80;;
36009;SDS011;22076;52.182;5.404;2024-03-25T12:43:31;12.00;;;4.85;;
36009;SDS011;22076;52.182;5.404;2024-03-25T12:45:57;9.77;;;4.70;;
36009;SDS011;22076;52.182;5.404;2024-03-25T12:48:23;15.85;;;5.15;;
36009;SDS011;22076;52.182;5.404;2024-03-25T12:50:48;11.60;;;4.47;;
36009;SDS011;22076;52.182;5.404;2024-03-25T12:53:16;12.48;;;4.72;;
36009;SDS011;22076;52.182;5.404;2024-03-25T12:55:43;9.13;;;4.95;;
36009;SDS011;22076;52.182;5.404;2024-03-25T12:58:10;10.55;;;4.85;;
36009;SDS011;22076;52.182;5.404;2024-03-25T13:00:36;9.35;;;3.85;;
36009;SDS011;22076;52.182;5.404;2024-03-25T13:03:02;10.77;;;4.25;;
36009;SDS011;22076;52.182;5.404;2024-03-25T13:05:28;9.07;;;4.70;;
36009;SDS011;22076;52.182;5.404;2024-03-25T13:07:53;11.63;;;4.75;;
36009;SDS011;22076;52.182;5.404;2024-03-25T13:10:19;11.00;;;4.65;;
36009;SDS011;22076;52.182;5.404;2024-03-25T13:12:45;8.20;;;4.05;;
36009;SDS011;22076;52.182;5.404;2024-03-25T13:15:12;7.55;;;4.10;;
36009;SDS011;22076;52.182;5.404;2024-03-25T13:17:38;10.63;;;4.78;;
36009;SDS011;22076;52.182;5.404;2024-03-25T13:20:04;10.10;;;3.75;;
36009;SDS011;22076;52.182;5.404;2024-03-25T13:22:30;10.93;;;4.53;;
36009;SDS011;22076;52.182;5.404;2024-03-25T13:24:56;8.98;;;4.00;;
36009;SDS011;22076;52.182;5.404;2024-03-25T13:27:22;7.07;;;3.60;;
36009;SDS011;22076;52.182;5.404;2024-03-25T13:29:47;7.65;;;4.28;;
36009;SDS011;22076;52.182;5.404;2024-03-25T13:32:14;7.20;;;3.05;;
36009;SDS011;22076;52.182;5.404;2024-03-25T13:34:40;8.32;;;3.85;;
36009;SDS011;22076;52.182;5.404;2024-03-25T13:37:05;6.55;;;3.92;;
36009;SDS011;22076;52.182;5.404;2024-03-25T13:39:31;9.80;;;4.18;;
36009;SDS011;22076;52.182;5.404;2024-03-25T13:41:57;12.82;;;3.88;;
36009;SDS011;22076;52.182;5.404;2024-03-25T13:44:22;7.97;;;4.15;;
36009;SDS011;22076;52.182;5.404;2024-03-25T13:46:48;8.20;;;3.80;;
36009;SDS011;22076;52.182;5.404;2024-03-25T13:49:15;9.70;;;4.43;;
36009;SDS011;22076;52.182;5.404;2024-03-25T13:51:41;11.60;;;4.20;;
36009;SDS011;22076;52.182;5.404;2024-03-25T13:54:06;9.55;;;4.30;;
36009;SDS011;22076;52.182;5.404;2024-03-25T13:56:34;6.50;;;3.58;;
36009;SDS011;22076;52.182;5.404;2024-03-25T13:59:00;6.72;;;3.35;;
36009;SDS011;22076;52.182;5.404;2024-03-25T14:01:25;8.88;;;3.47;;
36009;SDS011;22076;52.182;5.404;2024-03-25T14:03:51;10.30;;;3.85;;
36009;SDS011;22076;52.182;5.404;2024-03-25T14:06:18;9.43;;;3.63;;
36009;SDS011;22076;52.182;5.404;2024-03-25T14:08:44;7.90;;;4.10;;
36009;SDS011;22076;52.182;5.404;2024-03-25T14:11:09;10.13;;;3.40;;
36009;SDS011;22076;52.182;5.404;2024-03-25T14:13:35;11.38;;;4.35;;
36009;SDS011;22076;52.182;5.404;2024-03-25T14:16:00;8.30;;;4.68;;
36009;SDS011;22076;52.182;5.404;2024-03-25T14:18:26;11.25;;;4.30;;
36009;SDS011;22076;52.182;5.404;2024-03-25T14:20:52;6.22;;;3.75;;
36009;SDS011;22076;52.182;5.404;2024-03-25T14:23:19;6.45;;;3.53;;
36009;SDS011;22076;52.182;5.404;2024-03-25T14:25:45;9.65;;;4.50;;
36009;SDS011;22076;52.182;5.404;2024-03-25T14:28:15;5.53;;;3.35;;
36009;SDS011;22076;52.182;5.404;2024-03-25T14:30:41;8.18;;;3.42;;
36009;SDS011;22076;52.182;5.404;2024-03-25T14:33:07;8.45;;;4.30;;
36009;SDS011;22076;52.182;5.404;2024-03-25T14:35:33;9.20;;;4.10;;